ΕΜΥ, Εθνική Μετεωρολογική Υπηρεσία - Δελτία Καιρού, Προγνώσεις

ΑΕΡΟΝΑΥΤΙΛΙΑ

GREEK AIRPORTS CODES

TAF LGMG 150700Z 1509/1518 VRB05KT 9999 FEW025=

EUROPEAN AIRPORTS CODES

LFPO 151130Z 24020KT 9999 BKN040 BKN043 13/05 Q1013 TEMPO -RA=